createdAt,value
2022-12-31T00:00:00.644Z,9.2
2022-12-31T00:05:00.621Z,5.5
2022-12-31T00:10:00.782Z,6.8
2022-12-31T00:15:00.628Z,8.4
2022-12-31T00:20:00.893Z,8.4
2022-12-31T00:25:00.590Z,9.4
2022-12-31T00:30:05.157Z,6.1
2022-12-31T00:35:00.621Z,7.5
2022-12-31T00:40:00.612Z,7.1
2022-12-31T00:45:00.640Z,6.2
2022-12-31T00:50:00.655Z,3.8
2022-12-31T00:55:00.622Z,3.8
2022-12-31T01:00:00.686Z,5.7
2022-12-31T01:05:00.607Z,4.9
2022-12-31T01:10:00.707Z,3.4
2022-12-31T01:15:00.637Z,4.9
2022-12-31T01:20:00.859Z,3.6
2022-12-31T01:25:00.625Z,3.7
2022-12-31T01:30:00.639Z,4.3
2022-12-31T01:35:00.610Z,3.6
2022-12-31T01:40:00.626Z,4.3
2022-12-31T01:45:00.601Z,1.8
2022-12-31T01:50:00.678Z,2.8
2022-12-31T01:55:00.648Z,4.4
2022-12-31T02:00:00.645Z,1.1
2022-12-31T02:05:00.635Z,4.4
2022-12-31T02:10:00.647Z,4.8
2022-12-31T02:15:00.644Z,4.9
2022-12-31T02:20:00.660Z,3.1
2022-12-31T02:25:00.605Z,4.9
2022-12-31T02:30:00.647Z,3.7
2022-12-31T02:35:00.621Z,3.6
2022-12-31T02:40:00.642Z,3.1
2022-12-31T02:45:00.661Z,3.2
2022-12-31T02:50:00.843Z,4.4
2022-12-31T02:55:00.620Z,2.0
2022-12-31T03:00:00.911Z,4.0
2022-12-31T03:05:00.640Z,3.8
2022-12-31T03:10:00.626Z,2.7
2022-12-31T03:15:00.751Z,2.8
2022-12-31T03:20:00.978Z,3.5
2022-12-31T03:25:00.619Z,6.6
2022-12-31T03:30:00.636Z,2.8
2022-12-31T03:35:00.651Z,4.8
2022-12-31T03:40:00.694Z,4.2
2022-12-31T03:45:00.645Z,3.9
2022-12-31T03:50:00.689Z,5.8
2022-12-31T03:55:00.598Z,4.7
2022-12-31T04:00:00.686Z,3.5
2022-12-31T04:05:00.639Z,6.5
2022-12-31T04:10:00.724Z,3.1
2022-12-31T04:15:00.624Z,2.9
2022-12-31T04:20:00.650Z,3.4
2022-12-31T04:25:00.617Z,5.2
2022-12-31T04:30:00.649Z,5.9
2022-12-31T04:35:00.605Z,6.1
2022-12-31T04:40:08.753Z,5.9
2022-12-31T04:45:00.680Z,5.5
2022-12-31T04:50:00.664Z,3.2
2022-12-31T04:55:00.630Z,2.9
2022-12-31T05:00:00.610Z,6.1
2022-12-31T05:05:00.603Z,4.1
2022-12-31T05:10:00.651Z,5.1
2022-12-31T05:15:00.614Z,4.4
2022-12-31T05:20:00.602Z,6.7
2022-12-31T05:25:00.649Z,8.1
2022-12-31T05:30:03.068Z,3.9
2022-12-31T05:35:00.624Z,7.8
2022-12-31T05:40:00.651Z,6.7
2022-12-31T05:45:00.609Z,5.1
2022-12-31T05:50:00.650Z,4.0
2022-12-31T05:55:00.602Z,7.4
2022-12-31T06:00:00.728Z,4.5
2022-12-31T06:05:00.604Z,1.2
2022-12-31T06:10:00.828Z,1.6
2022-12-31T06:15:00.660Z,0.8
2022-12-31T06:20:01.599Z,0.3
2022-12-31T06:25:00.601Z,4.2
2022-12-31T06:30:00.725Z,3.0
2022-12-31T06:35:00.662Z,1.9
2022-12-31T06:40:00.653Z,5.7
2022-12-31T06:45:00.607Z,4.1
2022-12-31T06:50:00.628Z,2.3
2022-12-31T06:55:00.646Z,4.0
2022-12-31T07:00:00.617Z,3.8
2022-12-31T07:05:00.726Z,3.3
2022-12-31T07:10:00.659Z,5.4
2022-12-31T07:15:00.624Z,5.3
2022-12-31T07:20:00.665Z,5.1
2022-12-31T07:25:00.632Z,4.0
2022-12-31T07:30:00.673Z,8.0
2022-12-31T07:35:00.624Z,6.8
2022-12-31T07:40:00.658Z,7.3
2022-12-31T07:45:00.593Z,7.5
2022-12-31T07:50:00.669Z,6.4
2022-12-31T07:55:00.629Z,7.8
2022-12-31T08:00:00.662Z,8.6
2022-12-31T08:05:00.617Z,9.1
2022-12-31T08:10:00.638Z,7.0
2022-12-31T08:15:00.617Z,6.1
2022-12-31T08:20:00.650Z,5.6
2022-12-31T08:25:00.649Z,6.4
2022-12-31T08:30:00.638Z,6.9
2022-12-31T08:35:00.638Z,6.8
2022-12-31T08:40:00.703Z,6.2
2022-12-31T08:45:00.649Z,10.3
2022-12-31T08:50:00.641Z,11.1
2022-12-31T08:55:00.632Z,9.1
2022-12-31T09:00:00.642Z,10.1
2022-12-31T09:05:00.643Z,8.3
2022-12-31T09:10:00.654Z,8.0
2022-12-31T09:15:00.619Z,9.7
2022-12-31T09:20:00.639Z,7.8
2022-12-31T09:25:00.656Z,4.2
2022-12-31T09:30:00.625Z,3.7
2022-12-31T09:35:00.667Z,3.4
2022-12-31T09:40:00.614Z,4.8
2022-12-31T09:45:00.631Z,5.3
2022-12-31T09:50:00.666Z,5.8
2022-12-31T09:55:00.608Z,2.3
2022-12-31T10:00:00.666Z,8.4
2022-12-31T10:05:00.615Z,6.7
2022-12-31T10:10:00.648Z,9.5
2022-12-31T10:15:00.616Z,10.2
2022-12-31T10:20:00.631Z,7.3
2022-12-31T10:25:00.779Z,5.5
2022-12-31T10:30:00.644Z,3.2
2022-12-31T10:35:00.670Z,4.5
2022-12-31T10:40:00.683Z,4.5
2022-12-31T10:45:00.618Z,3.9
2022-12-31T10:50:00.669Z,5.8
2022-12-31T10:55:00.622Z,6.0
2022-12-31T11:00:00.636Z,3.8
2022-12-31T11:05:00.618Z,3.8
2022-12-31T11:10:00.864Z,4.0
2022-12-31T11:15:00.624Z,3.8
2022-12-31T11:20:00.635Z,6.2
2022-12-31T11:25:00.659Z,5.6
2022-12-31T11:30:00.659Z,4.1
2022-12-31T11:35:00.596Z,3.0
2022-12-31T11:40:00.650Z,2.4
2022-12-31T11:45:00.627Z,1.8
2022-12-31T11:50:00.656Z,2.5
2022-12-31T11:55:00.623Z,2.4
2022-12-31T12:00:00.640Z,3.2
2022-12-31T12:05:10.538Z,3.2
2022-12-31T12:10:00.653Z,3.8
2022-12-31T12:15:00.629Z,5.5
2022-12-31T12:20:00.652Z,6.8
2022-12-31T12:25:00.657Z,3.1
2022-12-31T12:30:00.650Z,4.7
2022-12-31T12:35:00.639Z,4.0
2022-12-31T12:40:00.660Z,4.7
2022-12-31T12:45:00.627Z,5.9
2022-12-31T12:50:00.871Z,5.9
2022-12-31T12:55:00.637Z,8.3
2022-12-31T13:00:00.641Z,6.7
2022-12-31T13:05:00.646Z,10.0
2022-12-31T13:10:00.658Z,10.9
2022-12-31T13:15:00.650Z,9.2
2022-12-31T13:20:00.652Z,12.1
2022-12-31T13:25:00.654Z,10.7
2022-12-31T13:30:00.658Z,13.6
2022-12-31T13:35:00.627Z,13.2
2022-12-31T13:40:00.716Z,14.9
2022-12-31T13:45:00.615Z,13.5
2022-12-31T13:50:00.661Z,13.5
2022-12-31T13:55:00.780Z,18.5
2022-12-31T14:00:00.637Z,12.6
2022-12-31T14:05:00.629Z,8.5
2022-12-31T14:10:00.657Z,8.7
2022-12-31T14:15:00.661Z,4.3
2022-12-31T14:20:00.659Z,6.7
2022-12-31T14:25:00.624Z,5.5
2022-12-31T14:30:00.646Z,5.3
2022-12-31T14:35:00.680Z,6.1
2022-12-31T14:40:00.790Z,7.8
2022-12-31T14:45:00.690Z,6.6
2022-12-31T14:50:00.651Z,8.0
2022-12-31T14:55:00.660Z,8.3
2022-12-31T15:00:00.654Z,7.2
2022-12-31T15:05:00.643Z,5.9
2022-12-31T15:10:00.650Z,5.1
2022-12-31T15:15:00.667Z,3.5
2022-12-31T15:20:00.846Z,3.5
2022-12-31T15:25:00.862Z,5.1
2022-12-31T15:30:00.787Z,4.9
2022-12-31T15:35:00.608Z,5.2
2022-12-31T15:40:00.641Z,7.7
2022-12-31T15:45:00.685Z,7.4
2022-12-31T15:50:00.858Z,7.2
2022-12-31T15:55:00.801Z,6.2
2022-12-31T16:00:00.631Z,7.7
2022-12-31T16:05:00.748Z,6.8
2022-12-31T16:10:00.675Z,4.6
2022-12-31T16:15:00.674Z,4.6
2022-12-31T16:20:00.692Z,6.9
2022-12-31T16:25:29.972Z,7.2
2022-12-31T16:30:00.853Z,8.1
2022-12-31T16:35:00.657Z,9.2
2022-12-31T16:40:00.642Z,10.3
2022-12-31T16:45:00.608Z,10.4
2022-12-31T16:50:00.665Z,8.8
2022-12-31T16:55:00.635Z,9.3
2022-12-31T17:00:00.704Z,10.7
2022-12-31T17:05:00.648Z,10.9
2022-12-31T17:10:00.630Z,12.5
2022-12-31T17:15:00.684Z,8.2
2022-12-31T17:20:00.641Z,8.3
2022-12-31T17:25:00.793Z,8.9
2022-12-31T17:30:00.858Z,10.5
2022-12-31T17:35:00.659Z,10.4
2022-12-31T17:40:49.062Z,8.7
2022-12-31T17:45:00.701Z,9.7
2022-12-31T17:50:00.650Z,11.4
2022-12-31T17:55:00.737Z,8.8
2022-12-31T18:00:00.632Z,11.6
2022-12-31T18:05:00.644Z,12.8
2022-12-31T18:10:00.650Z,12.3
2022-12-31T18:15:00.589Z,12.2
2022-12-31T18:20:06.261Z,13.9
2022-12-31T18:25:00.644Z,15.8
2022-12-31T18:30:06.399Z,13.6
2022-12-31T18:35:00.605Z,10.5
2022-12-31T18:40:00.646Z,12.0
2022-12-31T18:45:00.616Z,11.3
2022-12-31T18:50:00.641Z,11.5
2022-12-31T18:55:00.636Z,12.4
2022-12-31T19:00:00.646Z,10.5
2022-12-31T19:05:00.647Z,12.3
2022-12-31T19:10:00.662Z,9.0
2022-12-31T19:15:00.622Z,15.1
2022-12-31T19:20:00.607Z,12.8
2022-12-31T19:25:00.645Z,11.8
2022-12-31T19:30:00.604Z,12.4
2022-12-31T19:35:00.737Z,8.6
2022-12-31T19:40:00.645Z,14.5
2022-12-31T19:45:00.627Z,9.4
2022-12-31T19:50:00.651Z,15.7
2022-12-31T19:55:00.631Z,12.9
2022-12-31T20:00:00.656Z,13.7
2022-12-31T20:05:00.638Z,12.7
2022-12-31T20:10:00.649Z,12.0
2022-12-31T20:15:00.607Z,11.0
2022-12-31T20:20:00.636Z,13.9
2022-12-31T20:25:00.636Z,13.5
2022-12-31T20:30:00.634Z,13.9
2022-12-31T20:35:00.636Z,11.8
2022-12-31T20:40:00.663Z,11.4
2022-12-31T20:45:00.663Z,13.1
2022-12-31T20:50:12.102Z,10.9
2022-12-31T20:55:00.643Z,11.6
2022-12-31T21:00:00.647Z,15.1
2022-12-31T21:05:00.964Z,11.8
2022-12-31T21:10:00.797Z,13.7
2022-12-31T21:15:00.658Z,14.5
2022-12-31T21:20:00.660Z,14.1
2022-12-31T21:25:00.629Z,17.3
2022-12-31T21:30:19.234Z,13.2
2022-12-31T21:40:00.643Z,12.7
2022-12-31T21:45:00.660Z,14.2
2022-12-31T21:50:00.893Z,14.7
2022-12-31T21:55:00.634Z,12.0
2022-12-31T22:00:40.161Z,11.8
2022-12-31T22:05:03.594Z,15.8
2022-12-31T22:10:00.635Z,10.7
2022-12-31T22:15:14.087Z,13.7
2022-12-31T22:20:26.844Z,18.4
2022-12-31T22:25:00.645Z,15.2
2022-12-31T22:30:00.724Z,15.1
2022-12-31T22:35:00.604Z,16.0
2022-12-31T22:40:00.621Z,12.3
2022-12-31T22:45:00.626Z,13.6
2022-12-31T22:50:00.617Z,15.9
2022-12-31T22:55:00.627Z,17.1
2022-12-31T23:00:00.656Z,16.0
2022-12-31T23:05:15.023Z,14.1
2022-12-31T23:10:00.607Z,13.3
2022-12-31T23:15:00.689Z,16.5
2022-12-31T23:20:00.641Z,15.9
2022-12-31T23:25:00.655Z,13.5
2022-12-31T23:30:00.695Z,16.1
2022-12-31T23:35:09.491Z,16.6
2022-12-31T23:40:00.641Z,14.2
2022-12-31T23:45:00.623Z,16.9
2022-12-31T23:50:00.635Z,13.0
2022-12-31T23:55:00.628Z,13.3
